createdAt,value
2022-10-09T00:01:22.972Z,12.19
2022-10-09T00:03:52.865Z,12.12
2022-10-09T00:06:22.630Z,12.00
2022-10-09T00:08:52.001Z,12.26
2022-10-09T00:11:22.678Z,12.09
2022-10-09T00:13:51.551Z,12.08
2022-10-09T00:16:22.618Z,12.32
2022-10-09T00:18:50.436Z,12.40
2022-10-09T00:21:21.004Z,12.22
2022-10-09T00:23:49.525Z,12.13
2022-10-09T00:26:18.420Z,11.97
2022-10-09T00:28:47.163Z,12.11
2022-10-09T00:31:15.430Z,12.12
2022-10-09T00:33:44.631Z,12.00
2022-10-09T00:36:14.421Z,11.92
2022-10-09T00:38:42.126Z,11.51
2022-10-09T00:41:11.586Z,11.53
2022-10-09T00:43:42.639Z,11.09
2022-10-09T00:46:20.824Z,10.96
2022-10-09T00:48:57.840Z,11.01
2022-10-09T00:51:25.896Z,11.05
2022-10-09T00:53:53.753Z,10.92
2022-10-09T00:56:21.771Z,10.81
2022-10-09T00:58:54.405Z,10.91
2022-10-09T01:01:25.020Z,11.20
2022-10-09T01:03:54.088Z,11.34
2022-10-09T01:06:31.038Z,11.41
2022-10-09T01:09:03.750Z,11.41
2022-10-09T01:11:39.732Z,11.30
2022-10-09T01:14:15.801Z,11.31
2022-10-09T01:16:51.389Z,11.41
2022-10-09T01:19:36.547Z,11.47
2022-10-09T01:22:15.074Z,11.52
2022-10-09T01:24:48.840Z,11.58
2022-10-09T01:27:21.954Z,11.52
2022-10-09T01:29:53.258Z,11.46
2022-10-09T01:32:24.430Z,11.51
2022-10-09T01:34:53.610Z,11.50
2022-10-09T01:37:23.834Z,11.28
2022-10-09T01:39:53.037Z,11.14
2022-10-09T01:42:24.060Z,11.21
2022-10-09T01:44:51.763Z,11.18
2022-10-09T01:47:21.420Z,11.01
2022-10-09T01:49:55.833Z,8.87
2022-10-09T01:52:41.011Z,9.66
2022-10-09T01:55:26.596Z,10.21
2022-10-09T01:58:01.346Z,10.31
2022-10-09T02:00:31.673Z,9.51
2022-10-09T02:02:59.915Z,10.23
2022-10-09T02:05:29.970Z,10.39
2022-10-09T02:07:58.805Z,10.63
2022-10-09T02:10:27.579Z,10.50
2022-10-09T02:12:59.058Z,10.61
2022-10-09T02:15:31.803Z,10.55
2022-10-09T02:18:06.861Z,10.53
2022-10-09T02:20:38.282Z,10.74
2022-10-09T02:23:08.535Z,10.73
2022-10-09T02:25:36.736Z,10.51
2022-10-09T02:28:06.715Z,10.50
2022-10-09T02:30:43.015Z,10.52
2022-10-09T02:33:10.786Z,10.47
2022-10-09T02:35:39.349Z,8.16
2022-10-09T02:38:06.979Z,9.08
2022-10-09T02:40:34.585Z,9.55
2022-10-09T02:43:02.243Z,9.93
2022-10-09T02:45:31.211Z,9.97
2022-10-09T02:47:58.864Z,9.01
2022-10-09T02:50:26.500Z,9.09
2022-10-09T02:52:54.114Z,9.41
2022-10-09T02:55:21.683Z,8.96
2022-10-09T02:57:49.386Z,8.55
2022-10-09T03:00:17.171Z,9.08
2022-10-09T03:02:46.395Z,9.80
2022-10-09T03:05:14.286Z,10.20
2022-10-09T03:07:42.572Z,10.15
2022-10-09T03:10:10.869Z,10.60
2022-10-09T03:12:38.467Z,10.42
2022-10-09T03:15:07.217Z,10.40
2022-10-09T03:17:34.883Z,10.06
2022-10-09T03:20:04.127Z,10.19
2022-10-09T03:22:31.912Z,10.25
2022-10-09T03:24:59.657Z,10.15
2022-10-09T03:27:27.363Z,10.14
2022-10-09T03:29:54.989Z,10.13
2022-10-09T03:32:22.690Z,10.05
2022-10-09T03:34:50.373Z,10.23
2022-10-09T03:37:19.523Z,9.99
2022-10-09T03:39:47.152Z,9.98
2022-10-09T03:42:14.819Z,9.83
2022-10-09T03:44:42.521Z,9.42
2022-10-09T03:47:10.319Z,9.03
2022-10-09T03:49:38.077Z,8.99
2022-10-09T03:52:05.797Z,8.72
2022-10-09T03:54:34.890Z,8.18
2022-10-09T03:57:02.695Z,8.25
2022-10-09T03:59:30.379Z,8.42
2022-10-09T04:01:58.097Z,8.31
2022-10-09T04:04:25.745Z,8.35
2022-10-09T04:06:53.455Z,8.38
2022-10-09T04:09:21.135Z,8.43
2022-10-09T04:11:50.646Z,8.64
2022-10-09T04:14:18.286Z,8.66
2022-10-09T04:16:46.020Z,8.77
2022-10-09T04:19:13.713Z,8.56
2022-10-09T04:21:41.361Z,8.19
2022-10-09T04:24:09.261Z,8.57
2022-10-09T04:26:37.174Z,8.49
2022-10-09T04:29:06.226Z,8.32
2022-10-09T04:31:34.134Z,8.61
2022-10-09T04:34:01.859Z,8.78
2022-10-09T04:36:29.526Z,8.36
2022-10-09T04:38:57.212Z,8.25
2022-10-09T04:41:24.967Z,8.13
2022-10-09T04:43:55.567Z,8.32
2022-10-09T04:46:24.953Z,8.07
2022-10-09T04:48:52.601Z,8.19
2022-10-09T04:51:20.380Z,8.56
2022-10-09T04:53:48.588Z,8.77
2022-10-09T04:56:18.107Z,8.73
2022-10-09T04:58:47.218Z,8.66
2022-10-09T05:01:17.968Z,8.84
2022-10-09T05:03:47.045Z,9.06
2022-10-09T05:06:15.521Z,9.16
2022-10-09T05:08:43.992Z,8.98
2022-10-09T05:11:14.266Z,9.03
2022-10-09T05:13:44.827Z,8.86
2022-10-09T05:16:14.789Z,8.86
2022-10-09T05:18:43.885Z,8.71
2022-10-09T05:21:13.121Z,8.69
2022-10-09T05:23:41.225Z,8.23
2022-10-09T05:26:12.644Z,8.44
2022-10-09T05:28:40.443Z,8.42
2022-10-09T05:31:09.515Z,8.55
2022-10-09T05:33:37.613Z,8.52
2022-10-09T05:36:06.415Z,8.34
2022-10-09T05:38:35.666Z,8.40
2022-10-09T05:41:06.202Z,8.61
2022-10-09T05:43:36.384Z,8.37
2022-10-09T05:46:09.331Z,7.87
2022-10-09T05:48:37.638Z,7.89
2022-10-09T05:51:14.187Z,7.90
2022-10-09T05:53:44.977Z,7.88
2022-10-09T05:56:14.258Z,7.97
2022-10-09T05:58:42.104Z,7.75
2022-10-09T06:01:10.030Z,7.59
2022-10-09T06:03:38.549Z,7.71
2022-10-09T06:06:07.703Z,8.05
2022-10-09T06:08:36.791Z,7.75
2022-10-09T06:11:13.862Z,7.97
2022-10-09T06:13:41.882Z,8.08
2022-10-09T06:16:11.482Z,8.08
2022-10-09T06:18:39.353Z,7.97
2022-10-09T06:21:07.489Z,8.07
2022-10-09T06:23:35.723Z,8.50
2022-10-09T06:26:05.303Z,8.40
2022-10-09T06:28:35.687Z,8.69
2022-10-09T06:31:04.310Z,8.33
2022-10-09T06:33:32.917Z,8.59
2022-10-09T06:36:09.738Z,8.59
2022-10-09T06:38:38.612Z,8.72
2022-10-09T06:41:08.427Z,8.75
2022-10-09T06:43:37.537Z,9.28
2022-10-09T06:46:07.927Z,9.09
2022-10-09T06:48:37.567Z,9.29
2022-10-09T06:51:08.412Z,9.19
2022-10-09T06:53:36.678Z,9.01
2022-10-09T06:56:05.061Z,9.12
2022-10-09T06:58:33.052Z,9.14
2022-10-09T07:01:07.517Z,9.48
2022-10-09T07:03:35.360Z,9.45
2022-10-09T07:06:10.802Z,9.28
2022-10-09T07:08:39.448Z,9.33
2022-10-09T07:11:12.143Z,9.92
2022-10-09T07:13:40.465Z,10.33
2022-10-09T07:16:09.987Z,10.19
2022-10-09T07:18:38.441Z,10.56
2022-10-09T07:21:07.972Z,10.34
2022-10-09T07:23:36.705Z,10.40
2022-10-09T07:26:11.307Z,10.49
2022-10-09T07:28:39.596Z,10.56
2022-10-09T07:31:09.091Z,10.85
2022-10-09T07:33:37.178Z,10.85
2022-10-09T07:36:06.426Z,11.05
2022-10-09T07:38:34.459Z,10.86
2022-10-09T07:41:03.165Z,10.75
2022-10-09T07:43:32.068Z,10.81
2022-10-09T07:46:00.763Z,11.06
2022-10-09T07:48:29.908Z,11.44
2022-10-09T07:50:57.902Z,11.37
2022-10-09T07:53:25.644Z,11.24
2022-10-09T07:55:53.383Z,11.56
2022-10-09T07:58:21.141Z,11.90
2022-10-09T08:00:48.871Z,12.17
2022-10-09T08:03:16.584Z,12.61
2022-10-09T08:05:45.693Z,12.24
2022-10-09T08:08:13.410Z,12.73
2022-10-09T08:10:41.052Z,12.92
2022-10-09T08:13:08.862Z,12.86
2022-10-09T08:15:41.459Z,12.62
2022-10-09T08:18:09.252Z,13.01
2022-10-09T08:20:36.982Z,13.39
2022-10-09T08:23:06.577Z,14.17
2022-10-09T08:25:35.932Z,14.72
2022-10-09T08:28:04.105Z,14.26
2022-10-09T08:30:32.068Z,14.71
2022-10-09T08:32:59.806Z,14.63
2022-10-09T08:35:30.005Z,15.18
2022-10-09T08:38:01.514Z,15.33
2022-10-09T08:40:35.158Z,15.66
2022-10-09T08:43:06.107Z,16.13
2022-10-09T08:45:34.647Z,17.03
2022-10-09T08:48:05.468Z,17.68
2022-10-09T08:50:36.138Z,18.02
2022-10-09T08:53:09.339Z,18.19
2022-10-09T08:55:46.249Z,18.58
2022-10-09T08:58:17.200Z,18.71
2022-10-09T09:00:50.933Z,19.10
2022-10-09T09:03:45.609Z,19.31
2022-10-09T09:06:15.894Z,20.64
2022-10-09T09:08:52.350Z,20.58
2022-10-09T09:11:32.552Z,20.26
2022-10-09T09:14:11.708Z,19.73
2022-10-09T09:16:45.869Z,20.77
2022-10-09T09:19:41.756Z,21.43
2022-10-09T09:22:12.712Z,21.48
2022-10-09T09:24:45.194Z,21.30
2022-10-09T09:27:19.201Z,21.81
2022-10-09T09:29:49.475Z,21.04
2022-10-09T09:32:21.429Z,21.67
2022-10-09T09:34:49.337Z,21.64
2022-10-09T09:37:18.097Z,22.36
2022-10-09T09:42:35.039Z,22.34
2022-10-09T09:45:06.004Z,22.42
2022-10-09T09:47:37.215Z,22.36
2022-10-09T09:50:06.505Z,22.93
2022-10-09T09:52:40.678Z,22.85
2022-10-09T09:55:08.973Z,22.68
2022-10-09T09:57:44.273Z,22.35
2022-10-09T10:00:23.464Z,23.17
2022-10-09T10:02:51.855Z,23.27
2022-10-09T10:05:25.771Z,23.49
2022-10-09T10:07:54.050Z,24.39
2022-10-09T10:10:25.880Z,24.42
2022-10-09T10:12:58.365Z,24.90
2022-10-09T10:15:28.633Z,25.51
2022-10-09T10:18:00.186Z,25.11
2022-10-09T10:20:29.473Z,24.74
2022-10-09T10:22:59.896Z,25.00
2022-10-09T10:25:32.664Z,24.93
2022-10-09T10:28:06.891Z,23.93
2022-10-09T10:30:36.421Z,25.72
2022-10-09T10:33:12.329Z,25.23
2022-10-09T10:35:42.938Z,25.48
2022-10-09T10:38:14.896Z,25.57
2022-10-09T10:40:47.919Z,25.07
2022-10-09T10:43:30.839Z,24.29
2022-10-09T10:46:03.547Z,24.50
2022-10-09T10:48:34.865Z,23.94
2022-10-09T10:51:18.038Z,25.06
2022-10-09T10:54:02.462Z,23.70
2022-10-09T10:56:33.875Z,24.60
2022-10-09T10:59:21.520Z,22.77
2022-10-09T11:01:55.815Z,23.25
2022-10-09T11:04:37.768Z,23.97
2022-10-09T11:07:13.708Z,23.56
2022-10-09T11:09:52.488Z,24.41
2022-10-09T11:12:46.712Z,24.17
2022-10-09T11:15:25.776Z,24.59
2022-10-09T11:18:00.120Z,25.26
2022-10-09T11:20:55.276Z,24.65
2022-10-09T11:23:30.754Z,24.35
2022-10-09T11:26:05.283Z,25.19
2022-10-09T11:28:39.619Z,23.55
2022-10-09T11:31:14.641Z,23.06
2022-10-09T11:33:46.571Z,23.44
2022-10-09T11:36:19.477Z,23.98
2022-10-09T11:38:52.731Z,23.45
2022-10-09T11:41:21.181Z,23.39
2022-10-09T11:44:00.369Z,23.66
2022-10-09T11:46:40.516Z,23.99
2022-10-09T11:49:18.306Z,23.93
2022-10-09T11:51:51.497Z,24.59
2022-10-09T11:54:22.451Z,24.50
2022-10-09T11:56:55.702Z,25.28
2022-10-09T11:59:25.982Z,24.73
2022-10-09T12:01:55.227Z,24.98
2022-10-09T12:04:43.596Z,25.15
2022-10-09T12:07:25.948Z,25.32
2022-10-09T12:09:59.836Z,25.19
2022-10-09T12:12:27.591Z,24.94
2022-10-09T12:14:55.470Z,25.53
2022-10-09T12:17:35.605Z,26.00
2022-10-09T12:20:08.491Z,25.49
2022-10-09T12:22:41.455Z,25.72
2022-10-09T12:25:18.341Z,24.79
2022-10-09T12:27:47.245Z,23.97
2022-10-09T12:30:24.513Z,23.60
2022-10-09T12:32:59.710Z,23.43
2022-10-09T12:35:36.631Z,22.73
2022-10-09T12:38:16.769Z,22.73
2022-10-09T12:40:48.794Z,22.62
2022-10-09T12:43:19.202Z,22.80
2022-10-09T12:45:49.875Z,23.04
2022-10-09T12:48:22.192Z,23.51
2022-10-09T12:50:50.419Z,23.42
2022-10-09T12:53:19.879Z,22.43
2022-10-09T12:55:50.324Z,22.66
2022-10-09T12:58:21.383Z,22.70
2022-10-09T13:00:51.998Z,22.80
2022-10-09T13:03:24.785Z,22.61
2022-10-09T13:05:53.246Z,23.14
2022-10-09T13:08:26.925Z,22.88
2022-10-09T13:10:55.433Z,22.83
2022-10-09T13:13:27.083Z,22.91
2022-10-09T13:16:02.219Z,22.34
2022-10-09T13:18:31.345Z,22.54
2022-10-09T13:21:00.664Z,22.62
2022-10-09T13:23:33.123Z,22.94
2022-10-09T13:26:03.631Z,22.49
2022-10-09T13:28:31.696Z,22.66
2022-10-09T13:31:07.490Z,22.33
2022-10-09T13:33:36.662Z,22.30
2022-10-09T13:36:04.579Z,21.88
2022-10-09T13:38:34.926Z,22.35
2022-10-09T13:41:03.178Z,22.00
2022-10-09T13:43:33.370Z,22.06
2022-10-09T13:46:01.202Z,21.93
2022-10-09T13:48:31.158Z,21.66
2022-10-09T13:51:00.258Z,21.62
2022-10-09T13:53:28.491Z,21.47
2022-10-09T13:56:00.718Z,20.78
2022-10-09T13:58:29.565Z,21.66
2022-10-09T14:00:58.049Z,21.65
2022-10-09T14:03:25.852Z,21.66
2022-10-09T14:06:00.446Z,21.77
2022-10-09T14:08:28.290Z,21.66
2022-10-09T14:10:56.085Z,21.81
2022-10-09T14:13:23.752Z,21.91
2022-10-09T14:15:53.074Z,21.76
2022-10-09T14:18:21.152Z,21.76
2022-10-09T14:20:48.984Z,21.79
2022-10-09T14:23:18.037Z,21.68
2022-10-09T14:25:45.700Z,21.46
2022-10-09T14:28:13.436Z,21.46
2022-10-09T14:30:41.568Z,21.56
2022-10-09T14:33:09.397Z,21.29
2022-10-09T14:35:37.221Z,21.25
2022-10-09T14:38:04.957Z,21.06
2022-10-09T14:40:33.976Z,21.75
2022-10-09T14:43:01.683Z,21.64
2022-10-09T14:45:29.834Z,21.23
2022-10-09T14:47:57.961Z,20.98
2022-10-09T14:50:25.649Z,20.35
2022-10-09T14:52:53.314Z,20.52
2022-10-09T14:55:20.995Z,20.50
2022-10-09T14:57:50.074Z,20.67
2022-10-09T15:00:18.048Z,20.84
2022-10-09T15:02:45.862Z,20.97
2022-10-09T15:05:13.579Z,20.80
2022-10-09T15:07:41.852Z,20.82
2022-10-09T15:10:12.448Z,20.84
2022-10-09T15:12:40.914Z,20.87
2022-10-09T15:15:10.925Z,20.43
2022-10-09T15:17:38.808Z,20.09
2022-10-09T15:20:07.329Z,19.89
2022-10-09T15:22:35.078Z,19.76
2022-10-09T15:25:02.785Z,19.38
2022-10-09T15:27:30.651Z,19.58
2022-10-09T15:29:58.377Z,19.35
2022-10-09T15:32:27.415Z,19.27
2022-10-09T15:34:55.109Z,19.06
2022-10-09T15:37:22.784Z,18.99
2022-10-09T15:39:50.478Z,18.93
2022-10-09T15:42:18.159Z,18.75
2022-10-09T15:44:46.017Z,19.12
2022-10-09T15:47:19.718Z,18.94
2022-10-09T15:49:53.215Z,19.20
2022-10-09T15:52:21.177Z,19.81
2022-10-09T15:54:48.907Z,19.28
2022-10-09T15:57:16.709Z,18.92
2022-10-09T15:59:44.538Z,18.72
2022-10-09T16:02:12.265Z,18.60
2022-10-09T16:04:40.103Z,18.63
2022-10-09T16:07:09.170Z,18.87
2022-10-09T16:09:38.050Z,18.89
2022-10-09T16:12:05.787Z,18.61
2022-10-09T16:14:33.828Z,18.42
2022-10-09T16:17:06.552Z,17.87
2022-10-09T16:19:36.799Z,17.85
2022-10-09T16:22:05.138Z,17.83
2022-10-09T16:24:34.187Z,17.61
2022-10-09T16:27:01.832Z,17.38
2022-10-09T16:29:30.849Z,17.20
2022-10-09T16:31:58.583Z,17.51
2022-10-09T16:34:26.423Z,17.31
2022-10-09T16:36:54.112Z,17.16
2022-10-09T16:39:23.584Z,16.86
2022-10-09T16:41:52.730Z,16.75
2022-10-09T16:44:20.457Z,16.82
2022-10-09T16:46:51.043Z,16.61
2022-10-09T16:49:21.437Z,16.35
2022-10-09T16:51:52.135Z,16.13
2022-10-09T16:54:19.967Z,16.08
2022-10-09T16:56:47.692Z,16.06
2022-10-09T16:59:16.783Z,15.96
2022-10-09T17:01:46.381Z,15.88
2022-10-09T17:04:14.772Z,15.86
2022-10-09T17:06:43.743Z,15.80
2022-10-09T17:09:14.149Z,15.81
2022-10-09T17:11:43.332Z,15.66
2022-10-09T17:14:11.702Z,15.38
2022-10-09T17:16:42.814Z,15.52
2022-10-09T17:19:10.556Z,15.72
2022-10-09T17:21:38.297Z,15.71
2022-10-09T17:24:07.537Z,15.65
2022-10-09T17:26:36.150Z,15.49
2022-10-09T17:29:04.593Z,15.51
2022-10-09T17:31:32.657Z,15.37
2022-10-09T17:34:03.600Z,15.39
2022-10-09T17:36:33.534Z,15.56
2022-10-09T17:39:01.302Z,15.66
2022-10-09T17:41:29.660Z,15.37
2022-10-09T17:43:58.296Z,14.95
2022-10-09T17:46:27.805Z,14.85
2022-10-09T17:48:56.798Z,14.93
2022-10-09T17:51:28.674Z,14.90
2022-10-09T17:56:32.479Z,14.91
2022-10-09T17:59:01.061Z,14.76
2022-10-09T18:01:29.096Z,14.65
2022-10-09T18:04:00.347Z,14.68
2022-10-09T18:06:32.357Z,14.70
2022-10-09T18:09:00.410Z,14.72
2022-10-09T18:11:29.867Z,14.76
2022-10-09T18:13:57.863Z,15.15
2022-10-09T18:16:35.189Z,15.58
2022-10-09T18:19:04.521Z,15.70
2022-10-09T18:21:36.523Z,15.75
2022-10-09T18:24:04.749Z,15.82
2022-10-09T18:26:32.669Z,15.56
2022-10-09T18:29:01.155Z,15.49
2022-10-09T18:31:29.219Z,15.67
2022-10-09T18:33:58.651Z,15.45
2022-10-09T18:36:31.340Z,15.58
2022-10-09T18:39:03.550Z,15.33
2022-10-09T18:41:31.531Z,15.31
2022-10-09T18:44:00.978Z,15.00
2022-10-09T18:46:32.779Z,15.18
2022-10-09T18:49:00.919Z,15.12
2022-10-09T18:51:29.769Z,14.92
2022-10-09T18:54:06.628Z,14.98
2022-10-09T18:56:36.356Z,15.14
2022-10-09T18:59:07.960Z,15.11
2022-10-09T19:01:35.877Z,14.71
2022-10-09T19:04:04.328Z,14.71
2022-10-09T19:06:32.194Z,14.78
2022-10-09T19:09:00.795Z,14.47
2022-10-09T19:11:30.868Z,14.54
2022-10-09T19:14:00.391Z,14.53
2022-10-09T19:16:28.288Z,14.42
2022-10-09T19:18:56.482Z,14.60
2022-10-09T19:21:24.584Z,14.57
2022-10-09T19:23:54.007Z,14.56
2022-10-09T19:26:22.714Z,14.28
2022-10-09T19:28:51.914Z,14.37
2022-10-09T19:31:19.681Z,14.28
2022-10-09T19:33:47.359Z,14.27
2022-10-09T19:36:15.806Z,14.31
2022-10-09T19:38:43.641Z,14.41
2022-10-09T19:41:13.556Z,14.52
2022-10-09T19:43:41.302Z,14.46
2022-10-09T19:46:13.901Z,14.39
2022-10-09T19:48:41.795Z,14.56
2022-10-09T19:51:12.514Z,14.73
2022-10-09T19:53:40.400Z,14.72
2022-10-09T19:56:11.150Z,14.92
2022-10-09T19:58:40.765Z,15.06
2022-10-09T20:01:10.171Z,14.63
2022-10-09T20:03:38.217Z,15.06
2022-10-09T20:06:08.452Z,15.13
2022-10-09T20:08:36.472Z,15.36
2022-10-09T20:11:05.653Z,15.62
2022-10-09T20:13:34.175Z,15.07
2022-10-09T20:16:03.321Z,14.83
2022-10-09T20:18:32.593Z,14.63
2022-10-09T20:21:00.642Z,14.74
2022-10-09T20:23:28.339Z,14.69
2022-10-09T20:26:00.403Z,14.48
2022-10-09T20:28:28.206Z,14.61
2022-10-09T20:30:59.076Z,14.59
2022-10-09T20:33:27.432Z,14.51
2022-10-09T20:35:56.484Z,14.52
2022-10-09T20:38:25.893Z,14.38
2022-10-09T20:40:53.950Z,14.44
2022-10-09T20:43:21.689Z,14.62
2022-10-09T20:45:49.447Z,14.52
2022-10-09T20:48:17.527Z,14.63
2022-10-09T20:50:45.204Z,14.62
2022-10-09T20:53:14.293Z,14.47
2022-10-09T20:55:41.978Z,14.57
2022-10-09T20:58:09.679Z,14.58
2022-10-09T21:00:42.780Z,14.63
2022-10-09T21:03:12.589Z,14.65
2022-10-09T21:05:44.180Z,14.66
2022-10-09T21:08:12.005Z,14.59
2022-10-09T21:10:45.402Z,14.79
2022-10-09T21:13:13.781Z,14.64
2022-10-09T21:15:43.766Z,14.77
2022-10-09T21:18:11.894Z,14.74
2022-10-09T21:20:40.658Z,14.87
2022-10-09T21:23:09.739Z,14.64
2022-10-09T21:25:38.379Z,14.37
2022-10-09T21:28:07.438Z,14.33
2022-10-09T21:30:41.553Z,14.14
2022-10-09T21:33:10.095Z,14.14
2022-10-09T21:35:40.399Z,14.07
2022-10-09T21:38:12.106Z,14.23
2022-10-09T21:40:39.848Z,14.26
2022-10-09T21:43:09.024Z,14.06
2022-10-09T21:45:37.174Z,14.00
2022-10-09T21:48:05.248Z,13.84
2022-10-09T21:50:33.828Z,13.83
2022-10-09T21:53:01.577Z,13.71
2022-10-09T21:55:29.329Z,13.71
2022-10-09T21:57:56.993Z,13.66
2022-10-09T22:00:26.217Z,13.43
2022-10-09T22:02:53.979Z,13.43
2022-10-09T22:05:21.631Z,13.24
2022-10-09T22:07:49.342Z,13.39
2022-10-09T22:10:17.135Z,13.21
2022-10-09T22:12:44.850Z,13.04
2022-10-09T22:15:12.496Z,12.97
2022-10-09T22:17:41.524Z,12.93
2022-10-09T22:20:09.912Z,13.07
2022-10-09T22:22:37.653Z,13.33
2022-10-09T22:25:06.235Z,13.26
2022-10-09T22:27:33.915Z,12.90
2022-10-09T22:30:01.577Z,13.11
2022-10-09T22:32:29.283Z,13.18
2022-10-09T22:34:58.267Z,13.18
2022-10-09T22:37:25.953Z,13.08
2022-10-09T22:39:53.628Z,13.02
2022-10-09T22:42:21.484Z,12.77
2022-10-09T22:44:49.161Z,12.78
2022-10-09T22:47:16.816Z,12.78
2022-10-09T22:49:44.617Z,13.00
2022-10-09T22:52:13.664Z,12.95
2022-10-09T22:54:41.364Z,12.86
2022-10-09T22:57:09.058Z,12.84
2022-10-09T22:59:36.741Z,12.97
2022-10-09T23:02:04.625Z,13.11
2022-10-09T23:04:32.310Z,13.21
2022-10-09T23:07:01.060Z,13.20
2022-10-09T23:09:32.224Z,13.33
2022-10-09T23:12:00.894Z,13.27
2022-10-09T23:14:28.773Z,13.31
2022-10-09T23:16:56.463Z,13.31
2022-10-09T23:19:24.133Z,13.42
2022-10-09T23:21:51.792Z,13.49
2022-10-09T23:24:19.444Z,13.46
2022-10-09T23:26:52.082Z,13.43
2022-10-09T23:29:20.683Z,13.27
2022-10-09T23:31:50.040Z,13.24
2022-10-09T23:34:17.742Z,13.16
2022-10-09T23:36:45.438Z,13.08
2022-10-09T23:39:13.780Z,13.09
2022-10-09T23:41:41.487Z,13.04
2022-10-09T23:44:10.536Z,13.15
2022-10-09T23:46:38.467Z,13.22
2022-10-09T23:49:06.456Z,13.32
2022-10-09T23:51:34.244Z,13.27
2022-10-09T23:54:02.094Z,13.29
2022-10-09T23:56:32.222Z,13.46
2022-10-09T23:59:02.132Z,13.35
